Time,TemperatureF,DewpointF,PressureIn,WindDirection,WindDirectionDegrees,WindSpeedMPH,WindSpeedGustMPH,Humidity,HourlyPrecipIn,Conditions,Clouds,dailyrainin,SoftwareType,DateUTC
2013-07-08 00:05:00,73.8,73.8,29.88,North,0,0.0,0.0,100,0.00,,,0.00,meteo_script,2013-07-08 04:05:00,
2013-07-08 00:10:00,73.8,73.8,29.88,North,0,0.0,0.0,100,0.00,,,0.00,meteo_script,2013-07-08 04:10:00,
2013-07-08 00:15:00,73.7,73.7,29.88,North,0,0.0,0.0,100,0.00,,,0.00,meteo_script,2013-07-08 04:15:00,
2013-07-08 00:20:00,73.7,73.7,29.87,North,0,0.0,0.0,100,0.00,,,0.00,meteo_script,2013-07-08 04:20:00,
2013-07-08 00:25:00,73.6,73.6,29.87,North,0,0.0,0.0,100,0.00,,,0.00,meteo_script,2013-07-08 04:25:00,
2013-07-08 00:30:00,73.5,73.5,29.87,North,0,0.0,0.0,100,0.00,,,0.00,meteo_script,2013-07-08 04:30:00,
2013-07-08 00:40:00,73.4,73.4,29.87,North,0,0.0,0.0,100,0.00,,,0.00,meteo_script,2013-07-08 04:40:00,
2013-07-08 00:45:00,73.4,73.4,29.87,North,0,0.0,0.0,100,0.00,,,0.00,meteo_script,2013-07-08 04:45:00,
2013-07-08 00:50:00,73.4,73.4,29.87,North,0,0.0,0.0,100,0.00,,,0.00,meteo_script,2013-07-08 04:50:00,
2013-07-08 01:00:00,73.3,73.3,29.87,North,0,0.0,0.0,100,0.00,,,0.00,meteo_script,2013-07-08 05:00:00,
2013-07-08 01:05:00,73.2,73.2,29.88,North,0,0.0,0.0,100,0.00,,,0.00,meteo_script,2013-07-08 05:05:00,
2013-07-08 01:10:00,73.1,73.1,29.88,North,0,0.0,0.0,100,0.00,,,0.00,meteo_script,2013-07-08 05:10:00,
2013-07-08 01:20:00,73.0,73.0,29.88,North,0,0.0,0.0,100,0.00,,,0.00,meteo_script,2013-07-08 05:20:00,
2013-07-08 01:25:00,73.0,73.0,29.88,North,0,0.0,0.0,100,0.00,,,0.00,meteo_script,2013-07-08 05:25:00,
2013-07-08 01:30:00,73.0,73.0,29.88,North,0,0.0,0.0,100,0.00,,,0.00,meteo_script,2013-07-08 05:30:00,
2013-07-08 01:40:00,73.0,73.0,29.88,North,0,0.0,0.0,100,0.00,,,0.00,meteo_script,2013-07-08 05:40:00,
2013-07-08 01:45:00,72.9,72.9,29.89,North,0,0.0,0.0,100,0.00,,,0.00,meteo_script,2013-07-08 05:45:00,
2013-07-08 01:55:00,72.9,72.9,29.88,North,0,0.0,0.0,100,0.00,,,0.00,meteo_script,2013-07-08 05:55:00,
2013-07-08 02:00:00,72.9,72.9,29.88,North,0,0.0,0.0,100,0.00,,,0.00,meteo_script,2013-07-08 06:00:00,
2013-07-08 02:05:00,72.9,72.9,29.87,North,0,0.0,0.0,100,0.00,,,0.00,meteo_script,2013-07-08 06:05:00,
2013-07-08 02:15:00,73.0,73.0,29.87,North,0,0.0,0.0,100,0.00,,,0.00,meteo_script,2013-07-08 06:15:00,
2013-07-08 02:20:00,73.0,73.0,29.88,North,0,0.0,0.0,100,0.00,,,0.00,meteo_script,2013-07-08 06:20:00,
2013-07-08 02:25:00,72.9,72.9,29.88,North,0,0.0,0.0,100,0.00,,,0.00,meteo_script,2013-07-08 06:25:00,
2013-07-08 02:35:00,72.9,72.9,29.87,North,0,0.0,0.0,100,0.00,,,0.00,meteo_script,2013-07-08 06:35:00,
2013-07-08 02:40:00,73.0,73.0,29.87,North,0,0.0,0.0,100,0.00,,,0.00,meteo_script,2013-07-08 06:40:00,
2013-07-08 02:45:00,73.0,73.0,29.87,North,0,0.0,0.0,100,0.00,,,0.00,meteo_script,2013-07-08 06:45:00,
2013-07-08 02:50:00,72.9,72.9,29.87,North,0,0.0,0.0,100,0.00,,,0.00,meteo_script,2013-07-08 06:50:00,
2013-07-08 02:55:00,72.9,72.9,29.87,North,0,0.0,0.0,100,0.00,,,0.00,meteo_script,2013-07-08 06:55:00,
2013-07-08 03:00:00,72.9,72.9,29.86,North,0,0.0,0.0,100,0.00,,,0.00,meteo_script,2013-07-08 07:00:00,
2013-07-08 03:05:00,72.9,72.9,29.86,North,0,0.0,0.0,100,0.00,,,0.00,meteo_script,2013-07-08 07:05:00,
2013-07-08 03:10:00,72.9,72.9,29.87,North,0,0.0,0.0,100,0.00,,,0.00,meteo_script,2013-07-08 07:10:00,
2013-07-08 03:15:00,72.9,72.9,29.87,North,0,0.0,0.0,100,0.00,,,0.00,meteo_script,2013-07-08 07:15:00,
2013-07-08 03:20:00,72.9,72.9,29.87,North,0,0.0,0.0,100,0.00,,,0.00,meteo_script,2013-07-08 07:20:00,
2013-07-08 03:25:00,72.8,72.8,29.87,North,0,0.0,0.0,100,0.00,,,0.00,meteo_script,2013-07-08 07:25:00,
2013-07-08 03:35:00,72.8,72.8,29.87,North,0,0.0,0.0,100,0.00,,,0.00,meteo_script,2013-07-08 07:35:00,
2013-07-08 03:40:00,72.7,72.7,29.86,North,0,0.0,0.0,100,0.00,,,0.00,meteo_script,2013-07-08 07:40:00,
2013-07-08 03:50:00,72.8,72.8,29.86,North,0,0.0,0.0,100,0.00,,,0.00,meteo_script,2013-07-08 07:50:00,
2013-07-08 03:55:00,72.8,72.8,29.86,North,0,0.0,0.0,100,0.00,,,0.00,meteo_script,2013-07-08 07:55:00,
2013-07-08 04:05:00,72.9,72.9,29.86,North,0,0.0,0.0,100,0.00,,,0.00,meteo_script,2013-07-08 08:05:00,
2013-07-08 04:10:00,73.1,73.1,29.86,North,0,0.0,0.0,100,0.00,,,0.00,meteo_script,2013-07-08 08:10:00,
2013-07-08 04:20:00,73.2,73.1,29.86,North,0,0.0,0.0,100,0.00,,,0.00,meteo_script,2013-07-08 08:20:00,
2013-07-08 04:25:00,73.2,73.2,29.87,North,0,0.0,0.0,100,0.00,,,0.00,meteo_script,2013-07-08 08:25:00,
2013-07-08 04:30:00,73.2,73.2,29.86,North,0,0.0,0.0,100,0.00,,,0.00,meteo_script,2013-07-08 08:30:00,
2013-07-08 04:35:00,73.2,73.2,29.87,North,0,0.0,0.0,100,0.00,,,0.00,meteo_script,2013-07-08 08:35:00,
2013-07-08 04:45:00,73.1,73.1,29.86,North,0,0.0,0.0,100,0.00,,,0.00,meteo_script,2013-07-08 08:45:00,
2013-07-08 04:50:00,73.1,73.1,29.86,North,0,0.0,0.0,100,0.00,,,0.00,meteo_script,2013-07-08 08:50:00,
2013-07-08 04:55:00,73.0,73.0,29.86,North,0,0.0,0.0,100,0.00,,,0.00,meteo_script,2013-07-08 08:55:00,
2013-07-08 05:05:00,72.6,72.6,29.87,North,0,0.0,0.0,100,0.00,,,0.00,meteo_script,2013-07-08 09:05:00,
2013-07-08 05:10:00,72.6,72.6,29.87,North,0,0.0,0.0,100,0.00,,,0.00,meteo_script,2013-07-08 09:10:00,
2013-07-08 05:20:00,72.4,72.4,29.87,North,0,0.0,0.0,100,0.00,,,0.00,meteo_script,2013-07-08 09:20:00,
2013-07-08 05:25:00,72.4,72.4,29.87,North,0,0.0,0.0,100,0.00,,,0.00,meteo_script,2013-07-08 09:25:00,
2013-07-08 05:30:00,72.3,72.3,29.87,North,0,0.0,0.0,100,0.00,,,0.00,meteo_script,2013-07-08 09:30:00,
2013-07-08 05:40:00,72.2,72.2,29.87,North,0,0.0,0.0,100,0.00,,,0.00,meteo_script,2013-07-08 09:40:00,
2013-07-08 05:45:00,72.2,72.2,29.87,North,0,0.0,0.0,100,0.00,,,0.00,meteo_script,2013-07-08 09:45:00,
2013-07-08 05:55:00,72.2,72.2,29.87,North,0,0.0,0.0,100,0.00,,,0.00,meteo_script,2013-07-08 09:55:00,
2013-07-08 06:00:00,72.3,72.3,29.88,North,0,0.0,0.0,100,0.00,,,0.00,meteo_script,2013-07-08 10:00:00,
2013-07-08 06:05:00,72.2,72.2,29.88,North,0,0.0,0.0,100,0.00,,,0.00,meteo_script,2013-07-08 10:05:00,
2013-07-08 06:15:00,72.1,72.1,29.89,North,0,0.0,0.0,100,0.00,,,0.00,meteo_script,2013-07-08 10:15:00,
2013-07-08 06:20:00,72.1,72.1,29.89,North,0,0.0,0.0,100,0.00,,,0.00,meteo_script,2013-07-08 10:20:00,
2013-07-08 06:30:00,72.3,72.3,29.88,North,0,0.0,0.0,100,0.00,,,0.00,meteo_script,2013-07-08 10:30:00,
2013-07-08 06:40:00,72.4,72.4,29.88,North,0,0.0,0.0,100,0.00,,,0.00,meteo_script,2013-07-08 10:40:00,
2013-07-08 06:50:00,72.7,72.7,29.88,North,0,0.0,0.0,100,0.00,,,0.00,meteo_script,2013-07-08 10:50:00,
2013-07-08 06:55:00,72.9,72.9,29.88,North,0,0.0,0.0,100,0.00,,,0.00,meteo_script,2013-07-08 10:55:00,
2013-07-08 07:05:00,73.3,73.3,29.88,North,0,0.0,0.0,100,0.00,,,0.00,meteo_script,2013-07-08 11:05:00,
2013-07-08 07:10:00,73.6,73.6,29.88,North,0,0.0,0.0,100,0.00,,,0.00,meteo_script,2013-07-08 11:10:00,
2013-07-08 07:15:00,73.9,73.9,29.88,North,0,0.0,0.0,100,0.00,,,0.00,meteo_script,2013-07-08 11:15:00,
2013-07-08 07:25:00,74.4,74.4,29.88,North,0,0.0,0.0,100,0.00,,,0.00,meteo_script,2013-07-08 11:25:00,
2013-07-08 07:30:00,74.8,74.8,29.88,North,0,0.0,0.0,100,0.00,,,0.00,meteo_script,2013-07-08 11:30:00,
2013-07-08 07:40:00,75.2,75.2,29.89,North,0,0.0,0.0,100,0.00,,,0.00,meteo_script,2013-07-08 11:40:00,
2013-07-08 07:45:00,75.4,75.4,29.89,North,0,0.0,0.0,100,0.00,,,0.00,meteo_script,2013-07-08 11:45:00,
2013-07-08 07:50:00,75.5,75.5,29.89,North,0,0.0,0.0,100,0.00,,,0.00,meteo_script,2013-07-08 11:50:00,
2013-07-08 08:00:00,75.8,75.8,29.90,North,0,0.0,0.0,100,0.00,,,0.00,meteo_script,2013-07-08 12:00:00,
2013-07-08 08:05:00,76.0,76.0,29.90,North,0,0.0,0.0,100,0.00,,,0.00,meteo_script,2013-07-08 12:05:00,
2013-07-08 08:10:00,76.2,76.2,29.89,North,0,0.0,0.0,100,0.00,,,0.00,meteo_script,2013-07-08 12:10:00,
2013-07-08 08:20:00,76.4,76.4,29.89,North,0,0.0,0.0,100,0.00,,,0.00,meteo_script,2013-07-08 12:20:00,
2013-07-08 08:25:00,76.5,76.5,29.89,North,0,0.0,0.0,100,0.00,,,0.00,meteo_script,2013-07-08 12:25:00,
2013-07-08 08:35:00,76.8,76.8,29.89,North,0,0.0,0.0,100,0.00,,,0.00,meteo_script,2013-07-08 12:35:00,
2013-07-08 08:40:00,76.9,76.9,29.89,North,0,0.0,0.0,100,0.00,,,0.00,meteo_script,2013-07-08 12:40:00,
2013-07-08 08:50:00,77.1,77.1,29.89,North,0,0.0,0.0,100,0.00,,,0.00,meteo_script,2013-07-08 12:50:00,
2013-07-08 08:55:00,77.3,77.3,29.89,North,0,0.0,0.0,100,0.00,,,0.00,meteo_script,2013-07-08 12:55:00,
2013-07-08 09:05:00,77.9,77.9,29.89,North,0,0.0,0.0,100,0.00,,,0.00,meteo_script,2013-07-08 13:05:00,
2013-07-08 09:10:00,78.5,78.5,29.89,North,0,0.0,1.0,100,0.00,,,0.00,meteo_script,2013-07-08 13:10:00,
2013-07-08 09:20:00,79.2,79.2,29.90,North,0,0.0,0.0,100,0.00,,,0.00,meteo_script,2013-07-08 13:20:00,
2013-07-08 09:25:00,79.6,79.6,29.89,North,0,0.0,1.0,100,0.00,,,0.00,meteo_script,2013-07-08 13:25:00,
2013-07-08 09:30:00,79.8,79.8,29.90,North,0,0.0,0.0,100,0.00,,,0.00,meteo_script,2013-07-08 13:30:00,
2013-07-08 09:35:00,80.3,80.3,29.90,North,0,0.0,1.0,100,0.00,,,0.00,meteo_script,2013-07-08 13:35:00,
2013-07-08 09:40:00,80.4,80.4,29.90,North,0,0.0,0.0,100,0.00,,,0.00,meteo_script,2013-07-08 13:40:00,
2013-07-08 09:45:00,80.5,80.5,29.90,North,0,0.0,1.0,100,0.00,,,0.00,meteo_script,2013-07-08 13:45:00,
2013-07-08 09:50:00,80.7,80.7,29.90,North,0,0.0,1.0,100,0.00,,,0.00,meteo_script,2013-07-08 13:50:00,
2013-07-08 09:55:00,81.1,81.1,29.90,North,0,0.0,0.0,100,0.00,,,0.00,meteo_script,2013-07-08 13:55:00,
2013-07-08 10:00:00,81.5,81.5,29.91,South,187,0.0,1.0,100,0.00,,,0.00,meteo_script,2013-07-08 14:00:00,
2013-07-08 10:05:00,81.5,81.1,29.91,South,187,0.0,1.0,99,0.00,,,0.00,meteo_script,2013-07-08 14:05:00,
2013-07-08 10:10:00,81.3,81.2,29.91,South,187,0.0,1.0,99,0.00,,,0.00,meteo_script,2013-07-08 14:10:00,
2013-07-08 10:20:00,80.5,80.5,29.91,North,0,0.0,2.0,100,0.00,,,0.00,meteo_script,2013-07-08 14:20:00,
2013-07-08 10:25:00,80.4,80.4,29.90,North,0,0.1,2.0,100,0.00,,,0.00,meteo_script,2013-07-08 14:25:00,
2013-07-08 10:35:00,82.2,81.7,29.90,North,0,0.1,2.0,98,0.00,,,0.00,meteo_script,2013-07-08 14:35:00,
2013-07-08 10:40:00,82.6,81.4,29.90,North,0,0.1,1.0,96,0.00,,,0.00,meteo_script,2013-07-08 14:40:00,
2013-07-08 10:45:00,83.4,81.8,29.90,North,0,0.0,0.0,95,0.00,,,0.00,meteo_script,2013-07-08 14:45:00,
2013-07-08 10:55:00,84.5,82.3,29.90,North,0,0.1,1.0,93,0.00,,,0.00,meteo_script,2013-07-08 14:55:00,
2013-07-08 11:00:00,85.7,81.7,29.91,North,0,0.0,0.0,88,0.00,,,0.00,meteo_script,2013-07-08 15:00:00,
2013-07-08 11:10:00,87.7,83.0,29.91,NW,304,0.2,2.0,86,0.00,,,0.00,meteo_script,2013-07-08 15:10:00,
2013-07-08 11:15:00,88.6,82.8,29.91,North,0,0.1,2.0,83,0.00,,,0.00,meteo_script,2013-07-08 15:15:00,
2013-07-08 11:25:00,89.8,83.5,29.90,North,0,0.1,1.0,82,0.00,,,0.00,meteo_script,2013-07-08 15:25:00,
2013-07-08 11:35:00,87.6,82.4,29.90,North,0,0.0,0.0,84,0.00,,,0.00,meteo_script,2013-07-08 15:35:00,
2013-07-08 11:40:00,87.3,82.4,29.91,North,0,0.0,0.0,85,0.00,,,0.00,meteo_script,2013-07-08 15:40:00,
2013-07-08 11:45:00,87.6,82.2,29.91,WNW,303,0.0,1.0,84,0.00,,,0.00,meteo_script,2013-07-08 15:45:00,
2013-07-08 11:55:00,86.7,81.7,29.90,WNW,303,0.1,1.0,85,0.00,,,0.00,meteo_script,2013-07-08 15:55:00,
2013-07-08 12:00:00,87.5,82.6,29.91,North,0,0.0,0.0,85,0.00,,,0.00,meteo_script,2013-07-08 16:00:00,
2013-07-08 12:10:00,86.0,81.1,29.91,North,0,0.0,1.0,85,0.00,,,0.00,meteo_script,2013-07-08 16:10:00,
2013-07-08 12:15:00,84.5,80.3,29.90,North,0,0.0,0.0,87,0.00,,,0.00,meteo_script,2013-07-08 16:15:00,
2013-07-08 12:25:00,82.0,79.9,29.91,North,0,0.0,0.0,93,0.00,,,0.00,meteo_script,2013-07-08 16:25:00,
2013-07-08 12:30:00,80.4,79.1,29.91,North,0,0.0,0.0,96,0.00,,,0.00,meteo_script,2013-07-08 16:30:00,
2013-07-08 12:40:00,78.4,78.4,29.91,North,0,0.1,1.0,100,0.00,,,0.00,meteo_script,2013-07-08 16:40:00,
2013-07-08 12:45:00,77.8,77.8,29.91,North,0,0.1,2.0,100,0.00,,,0.00,meteo_script,2013-07-08 16:45:00,
2013-07-08 12:50:00,77.8,77.8,29.91,North,0,0.1,1.0,100,0.00,,,0.00,meteo_script,2013-07-08 16:50:00,
2013-07-08 12:56:00,77.9,77.9,29.91,North,0,0.0,1.0,100,0.00,,,0.00,meteo_script,2013-07-08 16:56:00,
2013-07-08 13:05:00,78.1,78.1,29.91,North,0,0.0,1.0,100,0.00,,,0.00,meteo_script,2013-07-08 17:05:00,
2013-07-08 13:16:00,79.1,79.1,29.90,NW,325,0.1,2.0,100,0.00,,,0.00,meteo_script,2013-07-08 17:16:00,
2013-07-08 13:25:00,82.8,82.8,29.90,North,0,0.1,1.0,100,0.00,,,0.00,meteo_script,2013-07-08 17:25:00,
2013-07-08 13:36:00,83.7,83.5,29.90,SW,224,0.3,7.0,99,0.00,,,0.00,meteo_script,2013-07-08 17:36:00,
2013-07-08 13:45:00,82.5,82.5,29.91,SW,225,0.1,2.0,100,0.00,,,0.00,meteo_script,2013-07-08 17:45:00,
2013-07-08 13:50:00,83.5,83.5,29.90,SSW,200,0.2,1.0,100,0.00,,,0.00,meteo_script,2013-07-08 17:50:00,
2013-07-08 14:01:00,86.3,84.4,29.90,East,81,0.2,4.0,94,0.00,,,0.00,meteo_script,2013-07-08 18:01:00,
2013-07-08 14:11:00,83.6,82.0,29.91,West,263,0.2,1.0,95,0.00,,,0.00,meteo_script,2013-07-08 18:11:00,
2013-07-08 14:20:00,82.0,81.5,29.91,SW,226,0.1,2.0,98,0.00,,,0.00,meteo_script,2013-07-08 18:20:00,
2013-07-08 14:25:00,81.4,81.2,29.91,North,0,0.1,2.0,99,0.00,,,0.00,meteo_script,2013-07-08 18:25:00,
2013-07-08 14:30:00,81.1,81.0,29.91,SW,226,0.1,2.0,99,0.00,,,0.00,meteo_script,2013-07-08 18:30:00,
2013-07-08 14:45:00,84.8,83.5,29.91,WSW,240,0.4,3.0,95,0.00,,,0.00,meteo_script,2013-07-08 18:45:00,
2013-07-08 14:50:00,86.0,83.4,29.91,SW,230,0.6,3.0,92,0.00,,,0.00,meteo_script,2013-07-08 18:50:00,
2013-07-08 15:00:00,87.6,84.3,29.91,WSW,254,0.4,2.0,90,0.00,,,0.00,meteo_script,2013-07-08 19:00:00,
2013-07-08 15:05:00,87.5,84.0,29.91,SW,216,0.5,3.0,89,0.00,,,0.00,meteo_script,2013-07-08 19:05:00,
2013-07-08 15:15:00,85.1,82.7,29.91,SW,236,0.3,3.0,92,0.00,,,0.00,meteo_script,2013-07-08 19:15:00,
2013-07-08 15:20:00,85.3,83.1,29.91,South,176,0.3,2.0,93,0.00,,,0.00,meteo_script,2013-07-08 19:20:00,
2013-07-08 15:26:00,85.1,83.1,29.90,North,0,0.2,1.0,94,0.00,,,0.00,meteo_script,2013-07-08 19:26:00,
2013-07-08 15:35:00,85.1,82.9,29.90,SW,224,0.6,5.0,93,0.00,,,0.00,meteo_script,2013-07-08 19:35:00,
2013-07-08 15:41:00,85.7,83.2,29.90,SW,231,0.7,2.0,92,0.00,,,0.00,meteo_script,2013-07-08 19:41:00,
2013-07-08 15:50:00,86.5,83.2,29.90,NNW,330,0.5,3.0,90,0.00,,,0.00,meteo_script,2013-07-08 19:50:00,
2013-07-08 15:55:00,86.6,82.9,29.90,NNW,329,0.4,1.0,89,0.00,,,0.00,meteo_script,2013-07-08 19:55:00,
2013-07-08 16:00:00,86.7,83.1,29.90,NW,311,0.3,2.0,89,0.00,,,0.00,meteo_script,2013-07-08 20:00:00,
2013-07-08 16:06:00,86.7,83.3,29.90,NE,56,0.4,3.0,89,0.00,,,0.00,meteo_script,2013-07-08 20:06:00,
2013-07-08 16:11:00,86.7,83.2,29.90,NE,56,0.2,1.0,89,0.00,,,0.00,meteo_script,2013-07-08 20:11:00,
2013-07-08 16:20:00,87.0,83.3,29.90,WSW,242,0.4,3.0,89,0.00,,,0.00,meteo_script,2013-07-08 20:20:00,
2013-07-08 16:25:00,86.6,83.1,29.90,West,266,0.5,4.0,89,0.00,,,0.00,meteo_script,2013-07-08 20:25:00,
2013-07-08 16:30:00,86.0,82.9,29.90,North,0,0.3,1.0,90,0.00,,,0.00,meteo_script,2013-07-08 20:30:00,
2013-07-08 16:40:00,84.7,82.5,29.90,North,0,0.2,2.0,93,0.00,,,0.00,meteo_script,2013-07-08 20:40:00,
2013-07-08 16:46:00,84.1,82.1,29.91,SW,225,0.2,2.0,94,0.00,,,0.00,meteo_script,2013-07-08 20:46:00,
2013-07-08 16:55:00,83.0,81.7,29.90,North,0,0.0,1.0,96,0.00,,,0.00,meteo_script,2013-07-08 20:55:00,
2013-07-08 17:00:00,82.6,81.5,29.90,North,0,0.0,0.0,96,0.00,,,0.00,meteo_script,2013-07-08 21:00:00,
2013-07-08 17:05:00,82.3,81.4,29.90,North,0,0.0,1.0,97,0.00,,,0.00,meteo_script,2013-07-08 21:05:00,
2013-07-08 17:15:00,81.9,81.4,29.90,North,355,0.0,1.0,98,0.00,,,0.00,meteo_script,2013-07-08 21:15:00,
2013-07-08 17:20:00,81.6,81.3,29.90,WNW,302,0.2,3.0,99,0.00,,,0.00,meteo_script,2013-07-08 21:20:00,
2013-07-08 17:25:00,81.4,80.7,29.90,SSW,213,0.4,4.0,98,0.00,,,0.00,meteo_script,2013-07-08 21:25:00,
2013-07-08 17:35:00,80.8,80.5,29.90,North,0,0.1,1.0,99,0.00,,,0.00,meteo_script,2013-07-08 21:35:00,
2013-07-08 17:40:00,80.5,80.3,29.90,SW,222,0.2,3.0,99,0.00,,,0.00,meteo_script,2013-07-08 21:40:00,
2013-07-08 17:50:00,79.4,78.2,29.92,SW,222,0.2,1.0,96,0.00,,,0.00,meteo_script,2013-07-08 21:50:00,
2013-07-08 17:55:00,78.6,77.5,29.92,ESE,121,0.3,4.0,96,0.00,,,0.00,meteo_script,2013-07-08 21:55:00,
2013-07-08 18:05:00,76.9,76.1,29.92,SSE,165,1.1,5.0,97,0.00,,,0.00,meteo_script,2013-07-08 22:05:00,
2013-07-08 18:11:00,76.4,75.8,29.92,WSW,240,1.1,4.0,98,0.00,,,0.00,meteo_script,2013-07-08 22:11:00,
2013-07-08 18:16:00,75.8,75.2,29.93,SSW,203,1.3,4.0,98,0.00,,,0.00,meteo_script,2013-07-08 22:16:00,
2013-07-08 18:25:00,74.3,74.2,29.94,NW,315,0.6,3.0,100,0.00,,,0.00,meteo_script,2013-07-08 22:25:00,
2013-07-08 18:30:00,73.9,73.9,29.94,WSW,245,0.4,3.0,100,0.00,,,0.00,meteo_script,2013-07-08 22:30:00,
2013-07-08 18:40:00,73.2,73.2,29.94,SW,232,0.4,2.0,100,0.00,,,0.00,meteo_script,2013-07-08 22:40:00,
2013-07-08 18:50:00,73.1,73.1,29.94,SSE,151,0.3,3.0,100,0.00,,,0.00,meteo_script,2013-07-08 22:50:00,
2013-07-08 19:01:00,72.7,72.7,29.93,West,279,0.2,1.0,100,0.00,,,0.00,meteo_script,2013-07-08 23:01:00,
2013-07-08 19:11:00,72.0,72.0,29.95,North,0,0.3,3.0,100,0.01,,,0.01,meteo_script,2013-07-08 23:11:00,
2013-07-08 19:20:00,71.3,71.3,29.95,North,0,0.0,0.0,100,0.01,,,0.01,meteo_script,2013-07-08 23:20:00,
2013-07-08 19:25:00,71.2,71.1,29.95,North,0,0.0,0.0,100,0.01,,,0.01,meteo_script,2013-07-08 23:25:00,
2013-07-08 19:30:00,71.2,71.2,29.96,North,0,0.0,1.0,100,0.02,,,0.02,meteo_script,2013-07-08 23:30:00,
2013-07-08 19:40:00,71.0,71.0,29.95,North,0,0.0,2.0,100,0.02,,,0.02,meteo_script,2013-07-08 23:40:00,
2013-07-08 19:45:00,71.0,71.0,29.95,North,0,0.0,1.0,100,0.02,,,0.02,meteo_script,2013-07-08 23:45:00,
2013-07-08 19:55:00,70.8,70.8,29.96,North,0,0.0,0.0,100,0.02,,,0.02,meteo_script,2013-07-08 23:55:00,
2013-07-08 20:05:00,70.8,70.8,29.97,North,0,0.0,0.0,100,0.01,,,0.02,meteo_script,2013-07-09 00:05:00,
2013-07-08 20:15:00,70.5,70.5,29.97,North,0,0.0,0.0,100,0.01,,,0.02,meteo_script,2013-07-09 00:15:00,
2013-07-08 20:20:00,70.4,70.4,29.97,North,0,0.0,0.0,100,0.01,,,0.02,meteo_script,2013-07-09 00:20:00,
2013-07-08 20:30:00,70.0,70.0,29.97,SSW,208,0.0,1.0,100,0.00,,,0.02,meteo_script,2013-07-09 00:30:00,
2013-07-08 20:40:00,69.8,69.8,29.98,SSW,208,0.0,1.0,100,0.00,,,0.02,meteo_script,2013-07-09 00:40:00,
2013-07-08 20:50:00,69.7,69.7,29.98,North,0,0.0,1.0,100,0.00,,,0.02,meteo_script,2013-07-09 00:50:00,
2013-07-08 20:55:00,69.7,69.7,29.98,North,0,0.0,0.0,100,0.00,,,0.02,meteo_script,2013-07-09 00:55:00,
2013-07-08 21:05:00,69.6,69.6,29.99,North,0,0.0,0.0,100,0.00,,,0.02,meteo_script,2013-07-09 01:05:00,
2013-07-08 21:10:00,69.5,69.5,29.99,North,0,0.0,0.0,100,0.00,,,0.02,meteo_script,2013-07-09 01:10:00,
2013-07-08 21:15:00,69.5,69.5,30.00,North,0,0.0,0.0,100,0.00,,,0.02,meteo_script,2013-07-09 01:15:00,
2013-07-08 21:20:00,69.5,69.5,30.00,North,0,0.0,0.0,100,0.00,,,0.02,meteo_script,2013-07-09 01:20:00,
2013-07-08 21:25:00,69.4,69.4,30.00,North,0,0.0,1.0,100,0.00,,,0.02,meteo_script,2013-07-09 01:25:00,
2013-07-08 21:30:00,69.4,69.4,30.00,North,0,0.0,0.0,100,0.00,,,0.02,meteo_script,2013-07-09 01:30:00,
2013-07-08 21:36:00,69.4,69.4,30.00,North,0,0.0,2.0,100,0.00,,,0.02,meteo_script,2013-07-09 01:36:00,
2013-07-08 21:41:00,69.3,69.3,30.00,North,0,0.0,0.0,100,0.00,,,0.02,meteo_script,2013-07-09 01:41:00,
2013-07-08 21:55:00,69.2,69.2,30.01,North,0,0.1,0.0,100,0.00,,,0.02,meteo_script,2013-07-09 01:55:00,
2013-07-08 22:00:00,69.1,69.1,30.00,North,0,0.0,2.0,100,0.00,,,0.02,meteo_script,2013-07-09 02:00:00,
2013-07-08 22:10:00,69.0,69.0,30.00,North,0,0.0,0.0,100,0.00,,,0.02,meteo_script,2013-07-09 02:10:00,
2013-07-08 22:15:00,68.8,68.8,30.00,North,0,0.0,1.0,100,0.00,,,0.02,meteo_script,2013-07-09 02:15:00,
2013-07-08 22:21:00,68.6,68.6,30.00,North,0,0.0,0.0,100,0.00,,,0.02,meteo_script,2013-07-09 02:21:00,
2013-07-08 22:31:00,68.6,68.6,30.01,North,0,0.0,0.0,100,0.00,,,0.02,meteo_script,2013-07-09 02:31:00,
2013-07-08 22:40:00,68.5,68.5,30.00,North,0,0.0,0.0,100,0.00,,,0.02,meteo_script,2013-07-09 02:40:00,
2013-07-08 22:50:00,68.3,68.3,30.00,North,0,0.0,0.0,100,0.00,,,0.02,meteo_script,2013-07-09 02:50:00,
2013-07-08 22:55:00,68.2,68.2,30.00,North,0,0.0,0.0,100,0.00,,,0.02,meteo_script,2013-07-09 02:55:00,
2013-07-08 23:06:00,68.2,68.2,30.01,North,0,0.0,0.0,100,0.00,,,0.02,meteo_script,2013-07-09 03:06:00,
2013-07-08 23:15:00,68.1,68.1,30.01,North,0,0.0,0.0,100,0.00,,,0.02,meteo_script,2013-07-09 03:15:00,
2013-07-08 23:26:00,68.1,68.1,30.02,North,0,0.0,2.0,100,0.00,,,0.02,meteo_script,2013-07-09 03:26:00,
2013-07-08 23:41:00,67.9,67.9,30.02,North,0,0.0,0.0,100,0.00,,,0.02,meteo_script,2013-07-09 03:41:00,
2013-07-08 23:51:00,67.6,67.6,30.02,North,0,0.0,0.0,100,0.00,,,0.02,meteo_script,2013-07-09 03:51:00,
2013-07-08 23:56:00,67.5,67.5,30.01,North,0,0.0,0.0,100,0.00,,,0.02,meteo_script,2013-07-09 03:56:00,